Warner, New Hampshire
Current Conditions -  °F | °C
As of 4:51 PM on Wednesday 28 Jan 2015 (Local Time) from KCON Reporting Station
Clear Clear  
Wind Chill: 15°   Ceiling: Unl
Heat Index: 21°   Visibility: 10mi
Dew Point:   Wind: 5mph
Humidity: 53%   Direction: 290°WNW
Pressure: 30.06"   Gusts: NA
Location:  43.28°N, 71.82°W
Report Text: KCON 282151Z AUTO 29004KT 10SM CLR M06/M14 A3006 RMK AO2 SLP187 T10611144
Loading
Personal Weather Stations






























Interactive Weather Map New forecast layout! Learn more

10-Day Weather Forecast

Advertisements
Track Severe Weather on mobile